Latest Weather Observations for Young

IDN60801

Issued at 9:33 pm EST Monday 25 July 2016 (issued every 30 minutes, with the page automatically refreshed every 10 minutes)

About weather observations | Map of weather stations | Latest weather observations for NSW | Other Formats
Station Details ID: 073138 Name: YOUNG AIRPORT Lat: -34.25 Lon: 148.25 Height: 379.6 m
Data from the previous 72 hours. | See also: Recent months at Young
Date/Time
EST
Temp
°C
App
Temp
°C
Dew
Point
°C
Rel
Hum
%
Delta-T
°C
Wind Press
QNH
hPa
Press
MSL
hPa
Rain since
9am
mm
Dir  Spd
km/h
Gust
km/h
Spd
kts
Gust
kts
25/09:30pm 5.4 4.0 5.3 99 0.0 N 2 6 1 3 1016.4 1017.2 0.8
25/09:00pm 6.1 3.8 5.8 98 0.1 N 7 13 4 7 1016.5 1017.3 0.8
25/08:30pm 6.2 3.9 5.6 96 0.3 N 7 11 4 6 1016.5 1017.3 0.8
25/08:00pm 6.2 3.5 5.5 95 0.3 N 9 11 5 6 1016.3 1017.1 0.8
25/07:30pm 6.4 4.0 5.2 92 0.5 NNW 7 9 4 5 1016.1 1016.8 0.8
25/07:00pm 7.3 4.7 6.1 92 0.6 NNW 9 13 5 7 1015.7 1016.4 0.8
25/06:30pm 7.0 4.0 5.9 93 0.5 N 11 17 6 9 1015.3 1016.0 0.8
25/06:00pm 7.4 3.3 6.2 92 0.6 NW 17 28 9 15 1015.1 1015.8 0.8
25/05:30pm 7.4 2.8 6.5 94 0.4 NW 20 32 11 17 1014.8 1015.5 0.6
25/05:00pm 8.0 4.4 6.6 91 0.7 NW 15 22 8 12 1014.8 1015.5 0.6
25/04:30pm 8.0 3.7 6.8 92 0.6 NW 19 30 10 16 1014.5 1015.3 0.6
25/04:00pm 8.3 4.4 6.9 91 0.7 NW 17 28 9 15 1014.4 1015.2 0.6
25/03:30pm 8.5 4.7 7.4 93 0.5 NW 17 30 9 16 1014.7 1015.4 0.6
25/03:00pm 8.2 3.8 7.6 96 0.3 NW 20 32 11 17 1014.8 1015.5 0.4
25/02:30pm 8.4 3.9 7.0 91 0.7 NW 20 33 11 18 1014.4 1015.2 0.2
25/02:00pm 8.3 4.2 7.9 97 0.2 NW 19 28 10 15 1014.3 1015.1 0.2
25/01:30pm 8.3 3.8 6.8 90 0.7 NNW 20 30 11 16 1014.4 1015.2 0.0
25/01:00pm 8.1 3.4 6.2 88 0.9 NW 20 30 11 16 1014.9 1015.6 0.0
25/12:30pm 8.4 4.5 6.9 90 0.7 NW 17 24 9 13 1015.3 1016.0 0.0
25/12:00pm 7.5 3.8 6.4 93 0.5 WNW 15 20 8 11 1015.6 1016.3 0.0
25/11:30am 8.4 3.4 4.8 78 1.6 WNW 20 32 11 17 1015.7 1016.4 0.0
25/11:00am 8.1 3.7 5.0 81 1.4 WNW 17 26 9 14 1015.9 1016.6 0.0
25/10:30am 7.7 3.9 5.8 88 0.9 WNW 15 22 8 12 1015.8 1016.5 0.0
25/10:00am 7.5 3.3 5.8 89 0.8 NW 17 26 9 14 1015.7 1016.4 0.0
25/09:30am 7.2 3.4 5.7 90 0.7 WNW 15 22 8 12 1015.4 1016.1 0.0
25/09:00am 7.0 3.2 5.8 92 0.5 WNW 15 22 8 12 1015.1 1015.8 7.8
25/08:30am 6.4 2.5 5.5 94 0.4 NW 15 20 8 11 1014.7 1015.4 7.8
25/08:00am 6.1 1.8 5.4 95 0.3 NW 17 28 9 15 1014.1 1014.9 7.8
25/07:30am 5.9 1.7 5.5 97 0.2 NW 17 24 9 13 1013.8 1014.5 7.8
25/07:00am 5.8 1.6 5.5 98 0.1 NW 17 26 9 14 1013.4 1014.1 7.8
25/06:30am 5.8 1.1 5.2 96 0.3 NW 19 33 10 18 1012.9 1013.6 7.8
25/06:00am 6.1 1.8 5.2 94 0.4 NW 17 24 9 13 1012.6 1013.3 7.6
25/05:30am 6.2 1.9 5.2 93 0.4 NW 17 28 9 15 1012.1 1012.8 7.4
25/05:00am 6.3 1.4 4.9 91 0.6 NW 20 30 11 16 1011.7 1012.4 7.4
25/04:30am 6.7 1.9 4.9 88 0.8 NW 19 28 10 15 1011.5 1012.2 7.2
25/04:00am 6.7 3.1 5.0 89 0.8 NW 13 20 7 11 1011.4 1012.1 7.2
25/03:30am 6.2 2.7 5.6 96 0.3 N 13 17 7 9 1011.4 1012.1 7.2
25/03:00am 5.9 2.4 5.6 98 0.1 N 13 17 7 9 1011.6 1012.3 7.2
25/02:30am 5.4 2.6 5.3 99 0.0 N 9 13 5 7 1011.8 1012.5 7.2
25/02:00am 5.3 2.1 5.2 99 0.0 NNW 11 17 6 9 1012.2 1012.9 7.2
25/01:30am 5.2 2.0 5.1 99 0.0 NNW 11 15 6 8 1012.2 1012.9 7.2
25/01:00am 5.5 1.9 5.1 97 0.2 NW 13 20 7 11 1012.1 1012.8 7.2
25/12:30am 6.2 2.0 5.5 95 0.3 NW 17 24 9 13 1011.8 1012.5 7.2
25/12:00am 6.8 2.2 5.7 93 0.5 NW 19 26 10 14 1011.8 1012.5 7.2
 
Date/Time
EST
Temp
°C
App
Temp
°C
Dew
Point
°C
Rel
Hum
%
Delta-T
°C
Wind Press
QNH
hPa
Press
MSL
hPa
Rain since
9am
mm
Dir  Spd
km/h
Gust
km/h
Spd
kts
Gust
kts
24/11:30pm 6.7 1.9 5.8 94 0.4 NW 20 33 11 18 1012.0 1012.7 7.2
24/11:00pm 6.8 0.4 5.1 89 0.8 NW 28 52 15 28 1011.7 1012.4 7.2
24/10:51pm 7.1 0.4 5.7 91 0.6 NW 30 48 16 26 1012.1 1012.8 7.0
24/10:50pm 7.2 1.0 6.1 93 0.5 NW 28 44 15 24 1012.1 1012.8 6.8
24/10:30pm 7.1 3.4 6.5 96 0.3 NNW 15 20 8 11 1011.5 1012.2 5.8
24/10:00pm 7.0 3.8 6.7 98 0.1 N 13 17 7 9 1011.5 1012.2 5.8
24/09:30pm 7.4 3.8 6.8 96 0.3 NNW 15 20 8 11 1011.6 1012.3 5.8
24/09:00pm 7.5 3.2 6.8 95 0.3 NW 19 28 10 15 1012.3 1013.0 5.0
24/08:30pm 7.5 4.4 7.2 98 0.1 NNW 13 15 7 8 1012.1 1012.8 4.0
24/08:00pm 7.6 4.1 7.0 96 0.3 NNW 15 20 8 11 1011.8 1012.5 4.0
24/07:30pm 7.6 3.7 7.2 97 0.2 NNW 17 24 9 13 1012.1 1012.8 4.0
24/07:00pm 7.7 3.3 6.5 92 0.6 NNW 19 26 10 14 1011.6 1012.3 3.2
24/06:30pm 7.2 5.2 6.1 93 0.5 W 6 9 3 5 1011.5 1012.2 2.0
24/06:00pm 8.1 4.2 5.4 83 1.2 N 15 20 8 11 1010.9 1011.6 0.2
24/05:30pm 8.1 4.5 5.2 82 1.3 N 13 17 7 9 1011.2 1011.9 0.2
24/05:00pm 8.1 4.2 5.2 82 1.3 N 15 20 8 11 1011.2 1011.9 0.2
24/04:30pm 7.4 5.0 5.4 87 0.9 N 7 9 4 5 1011.4 1012.1 0.2
24/04:00pm 6.9 2.0 4.0 82 1.3 NNW 19 37 10 20 1011.6 1012.3 0.2
24/03:30pm 8.9 3.7 3.3 68 2.5 NNW 20 26 11 14 1011.4 1012.1 0.2
24/03:00pm 9.5 4.3 3.3 65 2.7 NNW 20 28 11 15 1011.4 1012.1 0.0
24/02:30pm 9.8 4.8 3.5 65 2.8 NNW 19 24 10 13 1011.4 1012.1 0.0
24/02:00pm 9.2 3.7 2.1 61 3.0 NNW 20 32 11 17 1012.4 1013.1 0.0
24/01:30pm 9.4 4.0 1.3 57 3.4 NNW 19 28 10 15 1012.9 1013.6 0.0
24/01:00pm 9.5 5.0 2.4 61 3.1 NNW 15 20 8 11 1013.2 1013.9 0.0
24/12:30pm 8.7 4.7 2.9 67 2.5 N 13 20 7 11 1013.9 1014.6 0.0
24/12:00pm 8.1 4.1 3.0 70 2.2 N 13 19 7 10 1014.8 1015.5 0.0
24/11:30am 7.3 3.6 2.2 70 2.2 N 11 15 6 8 1015.7 1016.4 0.0
24/11:00am 7.2 3.4 3.8 79 1.5 N 13 17 7 9 1015.8 1016.5 0.0
24/10:30am 6.9 3.5 3.9 81 1.3 N 11 13 6 7 1016.2 1016.9 0.0
24/10:00am 5.0 1.8 3.0 87 0.8 N 9 13 5 7 1016.4 1017.2 0.0
24/09:30am 2.7 1.1 2.3 97 0.2 CALM 0 0 0 0 1016.4 1017.2 0.0
24/09:00am 1.0 -0.8 0.9 99 0.0 CALM 0 0 0 0 1016.2 1016.9 0.4
24/08:30am -0.4 -2.5 -0.5 99 0.0 CALM 0 0 0 0 1016.3 1017.1 0.4
24/08:00am -1.2 -3.4 -1.3 99 0.0 CALM 0 0 0 0 1016.0 1016.7 0.4
24/07:30am -2.2 -5.3 -2.3 99 -0.1 S 4 7 2 4 1015.7 1016.4 0.4
24/07:00am -1.9 -5.3 -2.0 99 -0.1 S 6 7 3 4 1015.1 1015.8 0.4
24/06:30am -2.1 -5.1 -2.2 99 -0.1 S 4 6 2 3 1015.0 1015.7 0.4
24/06:00am -2.1 -5.5 -2.2 99 -0.1 S 6 7 3 4 1014.8 1015.5 0.4
24/05:30am -2.1 -5.5 -2.2 99 -0.1 SSW 6 7 3 4 1014.4 1015.2 0.4
24/05:00am -1.9 -5.3 -2.0 99 -0.1 SW 6 7 3 4 1014.4 1015.2 0.4
24/04:30am -1.8 -5.2 -2.1 98 0.0 S 6 7 3 4 1014.3 1015.1 0.4
24/04:00am -1.5 -3.7 -1.8 98 0.0 CALM 0 0 0 0 1014.8 1015.5 0.4
24/03:30am -1.0 -3.9 -1.3 98 0.1 WSW 4 13 2 7 1014.7 1015.4 0.4
24/03:00am -1.0 -4.3 -1.4 97 0.1 WSW 6 7 3 4 1014.8 1015.5 0.4
24/02:30am -0.6 -3.5 -1.2 96 0.2 SSW 4 7 2 4 1014.4 1015.2 0.4
24/02:00am -0.2 -2.3 -0.8 96 0.2 CALM 0 0 0 0 1014.9 1015.6 0.4
24/01:30am 0.1 -2.0 -0.7 94 0.3 CALM 0 0 0 0 1015.0 1015.7 0.4
24/01:00am 0.8 -2.4 -0.6 90 0.5 SE 6 7 3 4 1015.4 1016.1 0.4
24/12:30am 1.7 -1.4 -0.1 88 0.7 N 6 7 3 4 1015.4 1016.1 0.4
24/12:00am 2.1 -0.3 -0.3 84 0.9 W 2 6 1 3 1015.4 1016.1 0.4
 
Date/Time
EST
Temp
°C
App
Temp
°C
Dew
Point
°C
Rel
Hum
%
Delta-T
°C
Wind Press
QNH
hPa
Press
MSL
hPa
Rain since
9am
mm
Dir  Spd
km/h
Gust
km/h
Spd
kts
Gust
kts
23/11:30pm 3.3 1.2 -0.7 75 1.5 CALM 0 0 0 0 1015.4 1016.1 0.4
23/11:00pm 4.0 0.8 -0.8 71 1.8 W 6 9 3 5 1015.4 1016.1 0.4
23/10:30pm 4.5 1.1 -0.7 69 2.0 WNW 7 9 4 5 1015.5 1016.2 0.4
23/10:00pm 4.9 1.7 -0.5 68 2.1 WNW 6 9 3 5 1015.1 1015.8 0.4
23/09:30pm 5.1 1.7 -0.7 66 2.2 W 7 13 4 7 1015.2 1015.9 0.4
23/09:00pm 5.5 1.4 -0.1 67 2.2 W 11 17 6 9 1014.9 1015.6 0.4
23/08:30pm 5.7 2.5 0.5 69 2.1 W 7 13 4 7 1014.8 1015.5 0.4
23/08:00pm 5.5 2.3 0.7 71 1.9 W 7 11 4 6 1014.5 1015.3 0.4
23/07:30pm 6.0 2.0 0.6 68 2.2 W 11 17 6 9 1014.2 1015.0 0.4
23/07:00pm 6.5 2.9 0.6 66 2.4 W 9 15 5 8 1014.0 1014.7 0.4
23/06:30pm 6.8 2.8 0.7 65 2.5 W 11 20 6 11 1013.4 1014.1 0.4
23/06:00pm 7.4 3.4 0.6 62 2.8 W 11 22 6 12 1012.9 1013.6 0.4
23/05:30pm 7.8 3.5 0.8 61 2.9 W 13 20 7 11 1012.4 1013.1 0.4
23/05:00pm 8.4 3.7 1.1 60 3.0 W 15 22 8 12 1012.0 1012.7 0.4
23/04:30pm 9.5 4.6 2.1 60 3.2 W 17 30 9 16 1011.4 1012.1 0.4
23/04:00pm 9.8 4.2 0.9 54 3.7 W 20 30 11 16 1010.9 1011.6 0.4
23/03:30pm 10.8 5.0 2.4 56 3.7 W 22 43 12 23 1010.5 1011.2 0.4
23/03:00pm 10.4 4.3 3.0 60 3.3 W 24 46 13 25 1010.1 1010.8 0.4
23/02:30pm 10.5 5.0 4.2 65 2.9 W 22 37 12 20 1009.8 1010.5 0.4
23/02:00pm 10.2 4.4 4.4 67 2.7 W 24 43 13 23 1009.7 1010.3 0.4
23/01:30pm 9.5 3.2 3.9 68 2.5 W 26 39 14 21 1009.4 1010.0 0.4
23/01:00pm 9.6 4.9 5.0 73 2.1 W 19 33 10 18 1009.4 1010.0 0.4
23/12:30pm 9.4 4.2 5.4 76 1.9 W 22 37 12 20 1009.4 1010.0 0.4
23/12:00pm 8.4 4.0 6.4 87 0.9 W 19 37 10 20 1009.5 1010.1 0.4
23/11:30am 7.6 2.1 5.7 88 0.9 W 24 37 13 20 1009.0 1009.7 0.2
23/11:00am 7.9 2.3 5.4 84 1.1 WNW 24 41 13 22 1008.9 1009.6 0.2
23/10:30am 8.2 2.6 5.5 83 1.2 WNW 24 44 13 24 1008.6 1009.3 0.2
23/10:00am 7.4 2.7 5.9 90 0.7 WNW 20 37 11 20 1008.3 1009.0 0.2
23/09:30am 7.7 2.6 6.0 89 0.8 WNW 22 37 12 20 1007.7 1008.4 0.2
23/09:00am 6.8 1.9 5.3 90 0.7 WNW 20 30 11 16 1007.3 1007.9 16.2
23/08:30am 7.3 2.3 4.4 82 1.3 WNW 20 35 11 19 1007.2 1007.8 16.0
23/08:00am 7.7 1.4 3.9 77 1.7 WNW 26 43 14 23 1006.6 1007.2 16.0
23/07:30am 7.8 2.2 3.5 74 1.9 WNW 22 39 12 21 1006.5 1007.1 16.0
23/07:00am 8.0 2.8 3.5 73 2.0 WNW 20 32 11 17 1006.1 1006.8 16.0
23/06:30am 8.2 3.2 3.7 73 2.0 W 19 32 10 17 1005.6 1006.3 16.0
23/06:00am 8.3 2.3 3.4 71 2.2 W 24 39 13 21 1005.1 1005.7 16.0
23/05:30am 8.6 1.9 3.8 72 2.1 W 28 46 15 25 1004.5 1005.1 16.0
23/05:03am 9.0 2.3 3.8 70 2.3 W 28 54 15 29 1003.9 1004.5 16.0
23/05:00am 9.0 2.7 4.0 71 2.2 W 26 54 14 29 1003.9 1004.5 16.0
23/04:51am 9.2 2.6 4.2 71 2.2 W 28 48 15 26 1003.7 1004.3 16.0
23/04:30am 9.3 4.0 4.9 74 2.0 W 22 46 12 25 1003.2 1003.9 16.0
23/04:00am 9.8 2.9 4.8 71 2.3 W 30 52 16 28 1002.9 1003.5 16.0
23/03:30am 10.2 3.8 5.4 72 2.2 W 28 50 15 27 1002.4 1003.0 16.0
23/03:21am 10.4 4.1 5.6 72 2.3 WNW 28 50 15 27 1002.1 1002.7 16.0
23/03:00am 10.5 5.9 6.6 77 1.9 WNW 20 37 11 20 1002.3 1002.9 16.0
23/02:30am 10.7 5.7 6.5 75 2.0 W 22 43 12 23 1002.5 1003.1 16.0
23/02:00am 10.6 5.4 7.3 80 1.6 W 24 44 13 24 1002.4 1003.0 16.0
23/01:30am 10.5 5.9 8.3 86 1.1 W 22 41 12 22 1002.5 1003.1 16.0
23/01:01am 12.4 6.4 6.9 69 2.7 W 28 50 15 27 1001.7 1002.3 16.0
23/01:00am 12.4 6.7 6.9 69 2.7 W 26 46 14 25 1001.7 1002.3 16.0
23/12:30am 12.8 8.3 7.0 68 2.9 WNW 20 35 11 19 1001.6 1002.2 16.0
23/12:00am 13.4 8.8 8.0 70 2.7 W 22 39 12 21 1001.7 1002.3 16.0
 
Date/Time
EST
Temp
°C
App
Temp
°C
Dew
Point
°C
Rel
Hum
%
Delta-T
°C
Wind Press
QNH
hPa
Press
MSL
hPa
Rain since
9am
mm
Dir  Spd
km/h
Gust
km/h
Spd
kts
Gust
kts
22/11:30pm 14.3 9.7 9.5 73 2.5 WNW 24 43 13 23 1001.4 1002.0 16.0
22/11:00pm 14.6 11.5 10.4 76 2.3 W 17 32 9 17 1001.0 1001.6 16.0
22/10:30pm 14.9 11.4 10.3 74 2.5 W 19 39 10 21 1001.1 1001.7 16.0
22/10:00pm 15.9 11.5 10.4 70 3.0 W 24 39 13 21 1000.9 1001.4 16.0

Other Formats:

Comma delimited format used in spreadsheet applications
http://www.bom.gov.au/fwo/IDN60801/IDN60801.94712.axf

JavaScript Object Notation format (JSON) in row-major order
http://www.bom.gov.au/fwo/IDN60801/IDN60801.94712.json